createdAt,value
2023-03-22T00:00:59.793Z,55.89
2023-03-22T00:02:03.904Z,55.90
2023-03-22T00:03:06.272Z,55.88
2023-03-22T00:04:11.281Z,55.89
2023-03-22T00:05:14.777Z,55.95
2023-03-22T00:06:19.738Z,55.91
2023-03-22T00:07:24.123Z,55.94
2023-03-22T00:08:26.359Z,55.93
2023-03-22T00:09:28.495Z,55.91
2023-03-22T00:10:35.571Z,55.88
2023-03-22T00:11:38.335Z,55.92
2023-03-22T00:12:46.025Z,56.00
2023-03-22T00:13:48.253Z,56.02
2023-03-22T00:14:52.536Z,56.04
2023-03-22T00:15:58.581Z,56.03
2023-03-22T00:17:05.137Z,56.09
2023-03-22T00:18:07.934Z,56.11
2023-03-22T00:19:10.038Z,56.17
2023-03-22T00:20:12.460Z,56.25
2023-03-22T00:21:17.071Z,56.22
2023-03-22T00:22:21.268Z,56.10
2023-03-22T00:23:28.571Z,56.12
2023-03-22T00:24:34.333Z,56.11
2023-03-22T00:25:41.801Z,56.02
2023-03-22T00:26:47.110Z,56.01
2023-03-22T00:27:52.919Z,55.96
2023-03-22T00:28:56.538Z,55.93
2023-03-22T00:30:04.257Z,55.98
2023-03-22T00:31:08.275Z,56.07
2023-03-22T00:32:10.512Z,56.01
2023-03-22T00:33:14.989Z,56.08
2023-03-22T00:34:17.644Z,56.03
2023-03-22T00:35:21.400Z,56.05
2023-03-22T00:36:29.993Z,56.08
2023-03-22T00:37:32.735Z,56.19
2023-03-22T00:38:45.332Z,56.24
2023-03-22T00:39:42.381Z,56.20
2023-03-22T00:40:53.858Z,56.28
2023-03-22T00:41:56.259Z,56.35
2023-03-22T00:42:58.951Z,56.28
2023-03-22T00:44:03.105Z,56.37
2023-03-22T00:45:09.267Z,56.40
2023-03-22T00:46:14.165Z,56.35
2023-03-22T00:47:16.528Z,56.31
2023-03-22T00:48:18.590Z,56.33
2023-03-22T00:49:20.868Z,56.35
2023-03-22T00:50:23.132Z,56.35
2023-03-22T00:51:25.440Z,56.38
2023-03-22T00:52:29.506Z,56.37
2023-03-22T00:53:33.077Z,56.34
2023-03-22T00:54:35.235Z,56.43
2023-03-22T00:55:37.547Z,56.48
2023-03-22T00:56:40.884Z,56.53
2023-03-22T00:57:45.242Z,56.60
2023-03-22T00:58:47.909Z,56.65
2023-03-22T00:59:50.897Z,56.79
2023-03-22T01:00:55.159Z,56.74
2023-03-22T01:01:59.366Z,56.73
2023-03-22T01:03:01.708Z,56.67
2023-03-22T01:04:04.562Z,56.66
2023-03-22T01:05:07.901Z,56.69
2023-03-22T01:06:11.262Z,56.73
2023-03-22T01:07:16.980Z,56.81
2023-03-22T01:08:19.809Z,56.97
2023-03-22T01:09:23.252Z,57.05
2023-03-22T01:10:26.322Z,57.00
2023-03-22T01:11:28.949Z,57.01
2023-03-22T01:12:31.604Z,56.91
2023-03-22T01:13:35.694Z,56.98
2023-03-22T01:14:39.017Z,57.02
2023-03-22T01:15:41.490Z,57.01
2023-03-22T01:16:44.465Z,57.00
2023-03-22T01:17:46.811Z,57.01
2023-03-22T01:18:49.155Z,56.93
2023-03-22T01:19:51.963Z,56.94
2023-03-22T01:20:55.346Z,56.96
2023-03-22T01:21:57.593Z,56.94
2023-03-22T01:23:02.048Z,57.06
2023-03-22T01:24:04.953Z,57.10
2023-03-22T01:25:08.498Z,57.15
2023-03-22T01:26:13.136Z,57.33
2023-03-22T01:27:16.342Z,57.42
2023-03-22T01:28:18.651Z,57.50
2023-03-22T01:29:21.615Z,57.42
2023-03-22T01:30:23.905Z,57.35
2023-03-22T01:31:27.955Z,57.37
2023-03-22T01:32:31.033Z,57.21
2023-03-22T01:33:33.366Z,57.12
2023-03-22T01:34:35.667Z,57.16
2023-03-22T01:35:39.234Z,57.18
2023-03-22T01:36:43.701Z,57.18
2023-03-22T01:37:49.983Z,57.21
2023-03-22T01:38:52.668Z,57.12
2023-03-22T01:39:56.288Z,57.15
2023-03-22T01:40:59.011Z,57.19
2023-03-22T01:42:03.270Z,57.26
2023-03-22T01:44:29.101Z,57.32
2023-03-22T01:45:38.086Z,57.56
2023-03-22T01:46:45.803Z,57.61
2023-03-22T01:47:56.542Z,57.58
2023-03-22T01:49:02.424Z,57.60
2023-03-22T01:50:08.102Z,57.61
2023-03-22T01:51:14.082Z,57.67
2023-03-22T01:52:18.581Z,57.75
2023-03-22T01:53:33.186Z,57.68
2023-03-22T01:54:45.973Z,57.64
2023-03-22T01:56:10.081Z,57.67
2023-03-22T01:57:12.811Z,57.55
2023-03-22T01:58:17.346Z,57.69
2023-03-22T01:59:30.436Z,57.70
2023-03-22T02:00:36.768Z,57.77
2023-03-22T02:01:43.943Z,57.79
2023-03-22T02:02:49.791Z,57.73
2023-03-22T02:04:04.127Z,57.66
2023-03-22T02:05:06.895Z,57.53
2023-03-22T02:06:10.690Z,57.59
2023-03-22T02:07:15.869Z,57.59
2023-03-22T02:08:20.321Z,57.55
2023-03-22T02:09:27.266Z,57.69
2023-03-22T02:10:31.039Z,57.76
2023-03-22T02:11:39.297Z,57.84
2023-03-22T02:13:09.706Z,57.92
2023-03-22T02:14:53.839Z,58.00
2023-03-22T02:16:24.162Z,58.01
2023-03-22T02:17:35.243Z,57.89
2023-03-22T02:20:32.304Z,58.03
2023-03-22T02:22:13.992Z,58.17
2023-03-22T02:23:31.596Z,58.13
2023-03-22T02:24:42.089Z,58.01
2023-03-22T02:27:32.317Z,58.10
2023-03-22T02:30:11.608Z,57.94
2023-03-22T02:31:32.680Z,57.89
2023-03-22T02:33:04.729Z,57.87
2023-03-22T02:34:24.494Z,57.92
2023-03-22T02:35:39.151Z,58.02
2023-03-22T02:36:51.157Z,58.10
2023-03-22T02:38:15.634Z,58.03
2023-03-22T02:39:55.096Z,58.00
2023-03-22T02:42:44.358Z,57.92
2023-03-22T02:43:53.229Z,58.17
2023-03-22T02:45:01.963Z,58.09
2023-03-22T02:46:16.837Z,58.18
2023-03-22T02:47:26.225Z,58.25
2023-03-22T02:48:55.637Z,58.17
2023-03-22T02:50:07.473Z,58.30
2023-03-22T02:51:16.133Z,58.25
2023-03-22T02:52:41.179Z,58.23
2023-03-22T02:53:50.358Z,58.27
2023-03-22T02:55:14.546Z,58.16
2023-03-22T02:56:23.722Z,58.20
2023-03-22T02:57:44.502Z,58.20
2023-03-22T02:58:50.427Z,58.27
2023-03-22T02:59:54.280Z,58.29
2023-03-22T03:01:02.836Z,58.35
2023-03-22T03:02:09.057Z,58.45
2023-03-22T03:03:13.380Z,58.62
2023-03-22T03:04:19.222Z,58.63
2023-03-22T03:05:24.295Z,58.68
2023-03-22T03:06:31.500Z,58.64
2023-03-22T03:07:34.944Z,58.69
2023-03-22T03:08:40.932Z,58.74
2023-03-22T03:09:44.646Z,58.78
2023-03-22T03:10:48.182Z,58.86
2023-03-22T03:11:56.581Z,58.85
2023-03-22T03:12:58.724Z,58.89
2023-03-22T03:14:01.089Z,58.87
2023-03-22T03:16:36.882Z,58.87
2023-03-22T03:19:46.570Z,59.03
2023-03-22T03:21:09.097Z,59.19
2023-03-22T03:24:12.170Z,58.94
2023-03-22T03:25:34.565Z,59.17
2023-03-22T03:28:25.788Z,58.96
2023-03-22T03:29:32.684Z,59.23
2023-03-22T03:30:38.850Z,59.25
2023-03-22T03:31:50.947Z,59.25
2023-03-22T03:33:00.159Z,59.23
2023-03-22T03:34:24.962Z,59.18
2023-03-22T03:35:30.818Z,59.28
2023-03-22T03:36:37.223Z,59.38
2023-03-22T03:37:43.175Z,59.44
2023-03-22T03:38:49.328Z,59.52
2023-03-22T03:41:12.466Z,59.48
2023-03-22T03:42:17.084Z,59.62
2023-03-22T03:43:21.868Z,59.54
2023-03-22T03:44:25.006Z,59.44
2023-03-22T03:45:28.016Z,59.42
2023-03-22T03:46:34.286Z,59.34
2023-03-22T03:47:38.003Z,59.39
2023-03-22T03:48:44.769Z,59.32
2023-03-22T03:49:47.106Z,59.30
2023-03-22T03:50:52.368Z,59.29
2023-03-22T03:51:55.729Z,59.29
2023-03-22T03:52:58.603Z,59.35
2023-03-22T03:54:00.778Z,59.41
2023-03-22T03:55:04.162Z,59.38
2023-03-22T03:56:08.937Z,59.29
2023-03-22T03:57:12.838Z,59.43
2023-03-22T03:58:15.136Z,59.36
2023-03-22T03:59:19.201Z,59.39
2023-03-22T04:00:22.861Z,59.41
2023-03-22T04:01:26.858Z,59.36
2023-03-22T04:02:34.322Z,59.34
2023-03-22T04:03:36.672Z,59.31
2023-03-22T04:04:45.117Z,59.26
2023-03-22T04:05:47.499Z,59.17
2023-03-22T04:06:50.109Z,59.17
2023-03-22T04:07:54.404Z,59.21
2023-03-22T04:08:56.495Z,59.24
2023-03-22T04:10:01.997Z,59.21
2023-03-22T04:11:06.561Z,59.22
2023-03-22T04:12:09.331Z,59.19
2023-03-22T04:13:11.875Z,59.18
2023-03-22T04:14:15.047Z,59.18
2023-03-22T04:15:17.729Z,59.23
2023-03-22T04:16:22.134Z,59.23
2023-03-22T04:17:28.155Z,59.28
2023-03-22T04:18:30.836Z,59.26
2023-03-22T04:19:34.630Z,59.34
2023-03-22T04:20:37.568Z,59.40
2023-03-22T04:21:40.284Z,59.45
2023-03-22T04:22:43.434Z,59.47
2023-03-22T04:23:45.721Z,59.42
2023-03-22T04:24:49.716Z,59.48
2023-03-22T04:25:52.444Z,59.47
2023-03-22T04:26:56.650Z,59.37
2023-03-22T04:28:00.720Z,59.36
2023-03-22T04:29:05.446Z,59.33
2023-03-22T04:30:12.283Z,59.43
2023-03-22T04:31:34.008Z,59.56
2023-03-22T04:32:38.932Z,59.49
2023-03-22T04:33:41.240Z,59.51
2023-03-22T04:34:54.502Z,59.51
2023-03-22T04:35:57.580Z,59.50
2023-03-22T04:37:02.415Z,59.55
2023-03-22T04:38:13.032Z,59.52
2023-03-22T04:39:15.705Z,59.54
2023-03-22T04:40:20.690Z,59.49
2023-03-22T04:41:24.840Z,59.56
2023-03-22T04:42:29.264Z,59.53
2023-03-22T04:43:33.759Z,59.50
2023-03-22T04:44:37.800Z,59.57
2023-03-22T04:45:40.942Z,59.57
2023-03-22T04:46:43.731Z,59.62
2023-03-22T04:47:46.124Z,59.68
2023-03-22T04:48:49.004Z,59.67
2023-03-22T04:49:51.658Z,59.69
2023-03-22T04:50:54.244Z,59.66
2023-03-22T04:51:58.417Z,59.69
2023-03-22T04:53:08.118Z,59.80
2023-03-22T04:54:10.936Z,59.72
2023-03-22T04:55:15.102Z,59.73
2023-03-22T04:56:18.523Z,59.65
2023-03-22T04:57:21.386Z,59.52
2023-03-22T04:58:25.617Z,59.44
2023-03-22T04:59:27.993Z,59.47
2023-03-22T05:00:31.018Z,59.41
2023-03-22T05:01:34.465Z,59.36
2023-03-22T05:02:40.756Z,59.30
2023-03-22T05:03:45.594Z,59.41
2023-03-22T05:04:48.285Z,59.41
2023-03-22T05:07:06.834Z,59.53
2023-03-22T05:08:14.231Z,59.58
2023-03-22T05:09:16.949Z,59.53
2023-03-22T05:10:19.769Z,59.46
2023-03-22T05:11:22.474Z,59.45
2023-03-22T05:12:26.464Z,59.49
2023-03-22T05:13:30.596Z,59.30
2023-03-22T05:14:33.610Z,59.33
2023-03-22T05:15:38.510Z,59.32
2023-03-22T05:16:42.905Z,59.19
2023-03-22T05:17:46.189Z,59.08
2023-03-22T05:18:48.976Z,59.10
2023-03-22T05:19:55.399Z,59.08
2023-03-22T05:20:59.679Z,58.99
2023-03-22T05:22:03.059Z,59.00
2023-03-22T05:23:10.302Z,59.09
2023-03-22T05:24:15.039Z,59.00
2023-03-22T05:25:19.112Z,58.91
2023-03-22T05:26:22.942Z,58.88
2023-03-22T05:27:26.022Z,58.83
2023-03-22T05:28:28.751Z,58.85
2023-03-22T05:29:32.925Z,58.74
2023-03-22T05:30:37.787Z,58.71
2023-03-22T05:31:42.405Z,58.66
2023-03-22T05:32:44.500Z,58.69
2023-03-22T05:35:01.666Z,58.75
2023-03-22T05:36:06.352Z,58.95
2023-03-22T05:37:10.488Z,58.89
2023-03-22T05:38:21.568Z,58.79
2023-03-22T05:39:25.741Z,58.68
2023-03-22T05:40:29.473Z,58.75
2023-03-22T05:41:31.933Z,58.81
2023-03-22T05:42:35.814Z,58.80
2023-03-22T05:43:41.457Z,58.84
2023-03-22T05:44:45.394Z,58.81
2023-03-22T05:45:49.247Z,58.90
2023-03-22T05:48:16.904Z,58.75
2023-03-22T05:49:19.965Z,58.87
2023-03-22T05:50:24.317Z,58.75
2023-03-22T05:51:26.713Z,58.69
2023-03-22T05:52:29.291Z,58.67
2023-03-22T05:53:33.375Z,58.56
2023-03-22T05:54:43.575Z,58.53
2023-03-22T05:55:45.862Z,58.49
2023-03-22T05:56:49.211Z,58.23
2023-03-22T05:57:51.512Z,58.28
2023-03-22T05:58:55.109Z,58.12
2023-03-22T05:59:57.735Z,58.17
2023-03-22T06:01:10.659Z,58.23
2023-03-22T06:02:14.849Z,58.29
2023-03-22T06:03:17.869Z,58.20
2023-03-22T06:04:22.880Z,67.34
2023-03-22T06:05:30.835Z,66.32
2023-03-22T06:06:33.330Z,63.53
2023-03-22T06:07:39.369Z,62.86
2023-03-22T06:08:43.484Z,62.31
2023-03-22T06:09:47.069Z,61.52
2023-03-22T06:10:53.307Z,61.34
2023-03-22T06:11:57.649Z,61.07
2023-03-22T06:12:59.896Z,60.48
2023-03-22T06:14:03.897Z,60.07
2023-03-22T06:15:09.749Z,59.73
2023-03-22T06:16:22.875Z,59.45
2023-03-22T06:17:25.421Z,59.37
2023-03-22T06:18:28.411Z,59.42
2023-03-22T06:19:35.565Z,59.46
2023-03-22T06:20:40.115Z,59.48
2023-03-22T06:21:45.002Z,59.39
2023-03-22T06:22:48.586Z,59.27
2023-03-22T06:23:52.433Z,59.22
2023-03-22T06:24:56.029Z,59.53
2023-03-22T06:26:00.204Z,59.41
2023-03-22T06:27:02.921Z,59.32
2023-03-22T06:28:08.615Z,59.26
2023-03-22T06:29:10.745Z,59.30
2023-03-22T06:30:13.948Z,59.20
2023-03-22T06:31:35.047Z,59.01
2023-03-22T06:32:39.188Z,58.81
2023-03-22T06:33:42.537Z,59.27
2023-03-22T06:34:47.311Z,58.97
2023-03-22T06:35:50.091Z,58.85
2023-03-22T06:36:54.810Z,58.66
2023-03-22T06:37:59.487Z,58.87
2023-03-22T06:39:01.822Z,58.79
2023-03-22T06:40:05.409Z,58.92
2023-03-22T06:41:08.041Z,58.90
2023-03-22T06:42:10.331Z,59.15
2023-03-22T06:43:13.799Z,58.86
2023-03-22T06:44:18.507Z,58.51
2023-03-22T06:45:26.671Z,58.61
2023-03-22T06:46:29.967Z,58.12
2023-03-22T06:47:34.246Z,58.08
2023-03-22T06:48:37.610Z,58.06
2023-03-22T06:49:42.259Z,57.76
2023-03-22T06:50:46.714Z,57.72
2023-03-22T06:51:57.405Z,57.72
2023-03-22T06:53:01.499Z,58.03
2023-03-22T06:54:04.040Z,58.00
2023-03-22T06:55:09.164Z,57.87
2023-03-22T06:56:11.824Z,57.92
2023-03-22T06:57:15.936Z,57.88
2023-03-22T06:58:18.143Z,58.07
2023-03-22T06:59:20.399Z,57.98
2023-03-22T07:00:22.837Z,58.21
2023-03-22T07:01:24.921Z,57.77
2023-03-22T07:02:27.293Z,57.75
2023-03-22T07:05:01.455Z,57.65
2023-03-22T07:06:10.825Z,57.82
2023-03-22T07:07:14.949Z,57.61
2023-03-22T07:08:21.887Z,57.65
2023-03-22T07:09:25.330Z,57.40
2023-03-22T07:10:29.478Z,57.33
2023-03-22T07:11:32.288Z,57.51
2023-03-22T07:12:36.955Z,57.54
2023-03-22T07:13:42.076Z,58.02
2023-03-22T07:14:46.487Z,58.12
2023-03-22T07:16:01.050Z,57.64
2023-03-22T07:17:18.252Z,57.83
2023-03-22T07:18:21.069Z,57.69
2023-03-22T07:19:23.360Z,57.80
2023-03-22T07:20:26.849Z,57.75
2023-03-22T07:21:29.644Z,57.90
2023-03-22T07:22:35.066Z,57.99
2023-03-22T07:23:37.186Z,57.85
2023-03-22T07:24:53.790Z,57.87
2023-03-22T07:25:47.566Z,57.90
2023-03-22T07:26:51.865Z,58.02
2023-03-22T07:27:55.984Z,57.96
2023-03-22T07:28:58.847Z,58.39
2023-03-22T07:30:07.209Z,58.19
2023-03-22T07:31:12.762Z,58.10
2023-03-22T07:32:19.766Z,58.11
2023-03-22T07:33:26.899Z,57.97
2023-03-22T07:34:31.042Z,58.09
2023-03-22T07:35:36.124Z,58.24
2023-03-22T07:36:39.884Z,58.36
2023-03-22T07:37:44.788Z,58.16
2023-03-22T07:38:51.591Z,58.37
2023-03-22T07:39:55.801Z,58.02
2023-03-22T07:40:58.072Z,57.93
2023-03-22T07:42:02.834Z,57.76
2023-03-22T07:43:09.892Z,57.55
2023-03-22T07:44:17.941Z,57.31
2023-03-22T07:45:23.300Z,57.22
2023-03-22T07:47:53.126Z,57.14
2023-03-22T07:49:06.090Z,57.07
2023-03-22T07:50:27.278Z,57.35
2023-03-22T07:51:31.457Z,57.56
2023-03-22T07:52:33.667Z,57.76
2023-03-22T07:53:35.877Z,58.89
2023-03-22T07:54:38.663Z,59.33
2023-03-22T07:55:42.705Z,59.17
2023-03-22T07:56:45.203Z,58.58
2023-03-22T07:57:47.988Z,58.59
2023-03-22T07:58:50.297Z,58.28
2023-03-22T07:59:53.495Z,58.64
2023-03-22T08:00:56.671Z,57.21
2023-03-22T08:02:17.121Z,58.16
2023-03-22T08:03:21.281Z,57.14
2023-03-22T08:04:27.385Z,56.19
2023-03-22T08:05:34.740Z,56.01
2023-03-22T08:06:38.330Z,55.69
2023-03-22T08:07:40.921Z,55.63
2023-03-22T08:08:46.214Z,56.37
2023-03-22T08:09:48.615Z,56.21
2023-03-22T08:10:50.990Z,56.13
2023-03-22T08:11:53.769Z,55.74
2023-03-22T08:12:58.551Z,55.12
2023-03-22T08:14:01.573Z,54.97
2023-03-22T08:15:10.448Z,54.79
2023-03-22T08:16:13.707Z,54.82
2023-03-22T08:17:19.031Z,54.10
2023-03-22T08:18:22.893Z,53.70
2023-03-22T08:19:25.254Z,53.61
2023-03-22T08:20:28.813Z,53.35
2023-03-22T08:21:34.114Z,53.02
2023-03-22T08:22:39.646Z,53.03
2023-03-22T08:24:00.259Z,52.76
2023-03-22T08:25:21.497Z,51.81
2023-03-22T08:26:25.217Z,52.12
2023-03-22T08:27:29.345Z,51.90
2023-03-22T08:28:37.007Z,51.28
2023-03-22T08:29:45.338Z,51.82
2023-03-22T08:30:54.579Z,50.94
2023-03-22T08:32:01.682Z,49.91
2023-03-22T08:33:05.113Z,50.86
2023-03-22T08:34:10.200Z,49.27
2023-03-22T08:35:12.824Z,49.98
2023-03-22T08:36:18.798Z,49.35
2023-03-22T08:37:22.943Z,48.95
2023-03-22T08:38:26.731Z,48.80
2023-03-22T08:39:29.138Z,48.16
2023-03-22T08:40:33.395Z,48.63
2023-03-22T08:41:39.888Z,47.64
2023-03-22T08:42:42.877Z,47.86
2023-03-22T08:43:45.127Z,47.68
2023-03-22T08:44:48.068Z,47.55
2023-03-22T08:45:50.370Z,47.58
2023-03-22T08:46:54.407Z,47.55
2023-03-22T08:47:58.194Z,47.43
2023-03-22T08:49:01.044Z,47.22
2023-03-22T08:50:11.179Z,47.87
2023-03-22T08:51:20.858Z,47.91
2023-03-22T08:52:28.572Z,48.04
2023-03-22T08:53:32.671Z,48.13
2023-03-22T08:54:38.394Z,47.91
2023-03-22T08:55:40.871Z,48.07
2023-03-22T08:56:52.099Z,47.58
2023-03-22T08:58:03.504Z,47.68
2023-03-22T08:59:09.864Z,47.64
2023-03-22T09:00:18.712Z,48.08
2023-03-22T09:02:44.121Z,48.92
2023-03-22T09:03:47.206Z,49.32
2023-03-22T09:04:49.797Z,49.73
2023-03-22T09:05:52.988Z,49.41
2023-03-22T09:06:55.574Z,49.72
2023-03-22T09:08:05.871Z,49.29
2023-03-22T09:09:04.243Z,49.52
2023-03-22T09:10:09.203Z,49.06
2023-03-22T09:11:13.037Z,49.03
2023-03-22T09:12:17.178Z,48.52
2023-03-22T09:13:20.120Z,48.49
2023-03-22T09:14:24.370Z,49.03
2023-03-22T09:15:27.125Z,49.01
2023-03-22T09:16:31.374Z,49.27
2023-03-22T09:17:34.651Z,48.89
2023-03-22T09:18:39.756Z,48.60
2023-03-22T09:19:47.660Z,48.04
2023-03-22T09:20:51.129Z,47.28
2023-03-22T09:21:55.252Z,47.02
2023-03-22T09:23:02.332Z,47.04
2023-03-22T09:24:06.126Z,47.37
2023-03-22T09:25:14.456Z,47.37
2023-03-22T09:26:18.666Z,47.13
2023-03-22T09:27:23.116Z,47.37
2023-03-22T09:28:26.149Z,47.35
2023-03-22T09:29:30.274Z,47.37
2023-03-22T09:30:33.799Z,47.54
2023-03-22T09:31:37.743Z,47.78
2023-03-22T09:32:47.742Z,47.67
2023-03-22T09:33:50.910Z,47.73
2023-03-22T09:34:54.945Z,48.04
2023-03-22T09:35:58.736Z,48.10
2023-03-22T09:37:01.040Z,47.73
2023-03-22T09:38:05.550Z,47.93
2023-03-22T09:39:08.120Z,48.35
2023-03-22T09:40:13.112Z,48.22
2023-03-22T09:42:46.684Z,48.28
2023-03-22T09:43:53.659Z,49.09
2023-03-22T09:45:02.145Z,48.66
2023-03-22T09:46:09.159Z,48.84
2023-03-22T09:47:18.698Z,48.18
2023-03-22T09:48:25.601Z,48.13
2023-03-22T09:49:38.445Z,48.01
2023-03-22T09:50:41.637Z,48.66
2023-03-22T09:51:50.185Z,47.78
2023-03-22T09:52:54.490Z,47.57
2023-03-22T09:54:06.077Z,47.16
2023-03-22T09:55:15.324Z,47.64
2023-03-22T09:56:26.652Z,48.04
2023-03-22T09:57:35.429Z,47.49
2023-03-22T09:58:50.600Z,48.15
2023-03-22T09:59:57.767Z,47.91
2023-03-22T10:02:48.484Z,48.22
2023-03-22T10:04:08.512Z,49.07
2023-03-22T10:05:22.793Z,49.47
2023-03-22T10:06:28.311Z,49.47
2023-03-22T10:07:37.615Z,49.37
2023-03-22T10:10:22.420Z,48.67
2023-03-22T10:11:45.760Z,49.16
2023-03-22T10:12:55.318Z,48.97
2023-03-22T10:14:01.100Z,48.90
2023-03-22T10:16:48.638Z,48.99
2023-03-22T10:17:56.655Z,48.22
2023-03-22T10:19:10.144Z,48.63
2023-03-22T10:20:42.496Z,49.22
2023-03-22T10:21:53.918Z,49.22
2023-03-22T10:23:04.376Z,48.91
2023-03-22T10:24:25.548Z,49.30
2023-03-22T10:25:39.627Z,49.35
2023-03-22T10:26:48.352Z,49.00
2023-03-22T10:27:52.173Z,49.29
2023-03-22T10:29:14.364Z,49.46
2023-03-22T10:30:25.549Z,49.70
2023-03-22T10:31:33.756Z,49.69
2023-03-22T10:32:57.887Z,50.06
2023-03-22T10:34:06.124Z,49.92
2023-03-22T10:35:14.308Z,50.06
2023-03-22T10:36:19.645Z,50.11
2023-03-22T10:38:57.501Z,50.08
2023-03-22T10:40:03.677Z,50.36
2023-03-22T10:41:09.909Z,49.97
2023-03-22T10:42:15.667Z,49.81
2023-03-22T10:43:21.444Z,49.97
2023-03-22T10:44:27.721Z,50.05
2023-03-22T10:45:35.453Z,49.90
2023-03-22T10:46:42.346Z,49.41
2023-03-22T10:49:01.964Z,49.24
2023-03-22T10:50:09.343Z,49.56
2023-03-22T10:51:17.372Z,49.88
2023-03-22T10:52:39.572Z,49.58
2023-03-22T10:53:49.674Z,49.60
2023-03-22T10:55:01.270Z,49.37
2023-03-22T10:56:02.010Z,49.67
2023-03-22T10:57:06.263Z,48.76
2023-03-22T10:58:22.083Z,49.07
2023-03-22T10:59:51.079Z,49.03
2023-03-22T11:00:58.092Z,48.74
2023-03-22T11:02:01.512Z,49.41
2023-03-22T11:03:06.468Z,49.01
2023-03-22T11:04:12.775Z,48.89
2023-03-22T11:08:04.152Z,49.59
2023-03-22T11:09:24.767Z,49.78
2023-03-22T11:10:34.104Z,49.83
2023-03-22T11:11:40.947Z,49.89
2023-03-22T11:12:55.012Z,50.09
2023-03-22T11:14:05.452Z,50.02
2023-03-22T11:16:56.526Z,49.71
2023-03-22T11:20:42.974Z,50.03
2023-03-22T11:21:47.894Z,50.25
2023-03-22T11:22:52.565Z,49.27
2023-03-22T11:24:04.992Z,49.15
2023-03-22T11:25:27.629Z,49.11
2023-03-22T11:59:14.258Z,49.72
2023-03-22T12:00:23.225Z,50.20
2023-03-22T12:01:45.331Z,50.35
2023-03-22T12:02:57.224Z,50.68
2023-03-22T12:04:03.473Z,50.46
2023-03-22T12:06:34.098Z,50.43
2023-03-22T12:07:38.282Z,50.11
2023-03-22T12:10:03.108Z,49.80
2023-03-22T12:11:08.297Z,49.91
2023-03-22T12:12:23.461Z,50.17
2023-03-22T12:13:33.118Z,49.89
2023-03-22T12:16:01.980Z,50.16
2023-03-22T12:18:24.671Z,50.59
2023-03-22T12:21:10.834Z,50.52
2023-03-22T12:22:22.349Z,50.11
2023-03-22T12:23:30.673Z,49.55
2023-03-22T12:24:33.380Z,50.05
2023-03-22T12:25:37.513Z,50.12
2023-03-22T12:26:40.198Z,50.68
2023-03-22T12:27:48.026Z,50.37
2023-03-22T12:28:56.850Z,50.13
2023-03-22T12:30:03.274Z,50.30
2023-03-22T12:31:08.221Z,49.59
2023-03-22T12:32:16.939Z,49.73
2023-03-22T12:34:46.404Z,49.36
2023-03-22T12:35:52.214Z,48.31
2023-03-22T12:36:57.480Z,48.68
2023-03-22T12:38:03.261Z,49.09
2023-03-22T12:41:39.782Z,48.14
2023-03-22T12:44:05.038Z,48.10
2023-03-22T12:45:19.894Z,48.05
2023-03-22T12:47:42.224Z,47.98
2023-03-22T12:51:28.766Z,46.92
2023-03-22T12:52:50.737Z,46.63
2023-03-22T12:53:57.061Z,47.20
2023-03-22T12:55:01.405Z,47.29
2023-03-22T12:56:09.330Z,47.49
2023-03-22T12:57:15.193Z,47.96
2023-03-22T12:58:24.659Z,47.39
2023-03-22T12:59:31.113Z,46.71
2023-03-22T13:00:55.124Z,46.85
2023-03-22T13:03:41.797Z,46.92
2023-03-22T13:05:05.233Z,47.15
2023-03-22T13:07:53.145Z,47.23
2023-03-22T13:09:05.048Z,47.04
2023-03-22T13:12:20.951Z,47.02
2023-03-22T13:13:27.356Z,47.31
2023-03-22T13:15:01.682Z,47.76
2023-03-22T13:16:13.732Z,46.94
2023-03-22T13:17:28.069Z,47.36
2023-03-22T13:18:43.786Z,47.25
2023-03-22T13:20:02.807Z,46.62
2023-03-22T13:21:19.676Z,45.97
2023-03-22T13:22:28.530Z,46.00
2023-03-22T13:23:31.768Z,45.51
2023-03-22T13:24:34.700Z,45.85
2023-03-22T13:26:01.283Z,45.39
2023-03-22T13:27:06.375Z,44.57
2023-03-22T13:28:25.937Z,44.76
2023-03-22T13:29:37.465Z,44.76
2023-03-22T13:32:14.771Z,44.77
2023-03-22T13:33:29.685Z,45.80
2023-03-22T13:34:47.824Z,45.67
2023-03-22T13:36:09.176Z,44.99
2023-03-22T13:38:45.558Z,45.14
2023-03-22T13:39:52.270Z,44.30
2023-03-22T13:42:40.665Z,44.61
2023-03-22T13:43:49.471Z,45.69
2023-03-22T13:44:55.543Z,45.33
2023-03-22T13:46:12.979Z,45.40
2023-03-22T13:47:46.100Z,44.87
2023-03-22T13:48:55.801Z,44.95
2023-03-22T13:50:02.132Z,45.17
2023-03-22T13:52:29.652Z,45.88
2023-03-22T13:53:34.998Z,45.85
2023-03-22T13:54:44.238Z,45.23
2023-03-22T13:55:49.982Z,45.39
2023-03-22T13:57:29.984Z,45.70
2023-03-22T13:58:52.370Z,45.70
2023-03-22T14:00:13.392Z,45.80
2023-03-22T14:01:14.648Z,45.70
2023-03-22T14:02:27.683Z,45.06
2023-03-22T14:03:36.369Z,44.59
2023-03-22T14:06:25.563Z,44.59
2023-03-22T14:07:41.785Z,44.48
2023-03-22T14:08:46.722Z,44.01
2023-03-22T14:09:56.606Z,44.08
2023-03-22T14:14:27.156Z,44.45
2023-03-22T14:15:33.171Z,44.34
2023-03-22T14:16:41.754Z,44.45
2023-03-22T14:17:50.064Z,44.35
2023-03-22T14:18:54.507Z,43.80
2023-03-22T14:19:58.244Z,44.20
